createdAt,value
2018-09-21T00:01:29.079Z,12.33
2018-09-21T00:04:02.670Z,12.50
2018-09-21T00:06:30.767Z,11.20
2018-09-21T00:08:58.862Z,11.80
2018-09-21T00:11:26.953Z,13.20
2018-09-21T00:13:55.038Z,13.00
2018-09-21T00:16:23.134Z,12.10
2018-09-21T00:18:51.222Z,12.00
2018-09-21T00:21:19.322Z,14.00
2018-09-21T00:23:47.408Z,13.80
2018-09-21T00:26:15.499Z,12.30
2018-09-21T00:28:43.587Z,12.30
2018-09-21T00:31:11.697Z,13.07
2018-09-21T00:33:39.773Z,13.90
2018-09-21T00:36:07.875Z,12.80
2018-09-21T00:38:35.961Z,12.60
2018-09-21T00:41:04.055Z,12.20
2018-09-21T00:43:32.141Z,12.50
2018-09-21T00:46:00.249Z,12.65
2018-09-21T00:48:28.334Z,13.43
2018-09-21T00:50:56.422Z,13.23
2018-09-21T00:53:24.521Z,13.90
2018-09-21T00:55:52.662Z,13.07
2018-09-21T00:58:20.742Z,12.97
2018-09-21T01:00:48.959Z,13.47
2018-09-21T01:03:17.042Z,13.27
2018-09-21T01:05:45.133Z,12.90
2018-09-21T01:08:13.226Z,13.43
2018-09-21T01:10:41.314Z,13.10
2018-09-21T01:13:09.410Z,12.67
2018-09-21T01:15:37.499Z,13.90
2018-09-21T01:18:05.594Z,14.20
2018-09-21T01:20:33.874Z,13.03
2018-09-21T01:23:01.993Z,13.40
2018-09-21T01:25:30.081Z,12.70
2018-09-21T01:27:58.183Z,13.30
2018-09-21T01:30:26.270Z,12.20
2018-09-21T01:32:54.396Z,12.70
2018-09-21T01:35:22.470Z,12.33
2018-09-21T01:37:50.571Z,12.47
2018-09-21T01:40:18.659Z,12.73
2018-09-21T01:42:46.754Z,11.47
2018-09-21T01:45:14.902Z,13.27
2018-09-21T01:47:43.061Z,13.40
2018-09-21T01:50:11.159Z,12.53
2018-09-21T01:52:39.246Z,12.70
2018-09-21T01:55:07.334Z,12.13
2018-09-21T01:57:35.445Z,13.40
2018-09-21T02:00:03.898Z,12.40
2018-09-21T02:02:31.986Z,13.27
2018-09-21T02:05:00.066Z,13.57
2018-09-21T02:07:28.158Z,13.43
2018-09-21T02:09:56.253Z,13.73
2018-09-21T02:12:24.351Z,13.93
2018-09-21T02:14:52.566Z,13.47
2018-09-21T02:17:20.656Z,13.20
2018-09-21T02:19:49.767Z,12.53
2018-09-21T02:22:17.850Z,13.10
2018-09-21T02:24:45.919Z,13.80
2018-09-21T02:27:14.005Z,12.77
2018-09-21T02:29:42.302Z,13.53
2018-09-21T02:32:10.396Z,13.13
2018-09-21T02:34:38.486Z,13.63
2018-09-21T02:37:06.579Z,14.20
2018-09-21T02:39:34.657Z,14.13
2018-09-21T02:42:02.761Z,14.67
2018-09-21T02:44:30.851Z,13.40
2018-09-21T02:46:58.930Z,13.50
2018-09-21T02:49:27.046Z,13.80
2018-09-21T02:51:55.142Z,13.63
2018-09-21T02:54:23.230Z,13.33
2018-09-21T02:56:51.306Z,14.23
2018-09-21T02:59:19.410Z,14.17
2018-09-21T03:01:47.496Z,13.10
2018-09-21T03:04:15.587Z,13.00
2018-09-21T03:06:43.662Z,13.80
2018-09-21T03:09:11.889Z,13.23
2018-09-21T03:11:39.966Z,14.17
2018-09-21T03:14:08.230Z,13.03
2018-09-21T03:16:36.319Z,12.77
2018-09-21T03:19:04.416Z,12.93
2018-09-21T03:21:32.497Z,14.27
2018-09-21T03:24:00.589Z,14.57
2018-09-21T03:26:28.686Z,13.37
2018-09-21T03:28:56.954Z,13.07
2018-09-21T03:31:25.034Z,13.00
2018-09-21T03:33:53.123Z,13.73
2018-09-21T03:36:21.374Z,12.13
2018-09-21T03:38:49.466Z,14.43
2018-09-21T03:41:17.542Z,12.70
2018-09-21T03:43:45.846Z,13.60
2018-09-21T03:46:13.930Z,15.30
2018-09-21T03:48:42.133Z,12.73
2018-09-21T03:51:10.216Z,12.93
2018-09-21T03:53:38.299Z,14.80
2018-09-21T03:56:06.377Z,13.00
2018-09-21T03:58:34.458Z,13.93
2018-09-21T04:01:02.556Z,13.43
2018-09-21T04:03:30.630Z,13.10
2018-09-21T04:05:58.710Z,12.73
2018-09-21T04:08:26.795Z,14.23
2018-09-21T04:10:54.883Z,14.27
2018-09-21T04:13:22.967Z,12.40
2018-09-21T04:15:51.050Z,12.30
2018-09-21T04:18:19.138Z,13.30
2018-09-21T04:20:47.226Z,13.40
2018-09-21T04:23:15.325Z,14.67
2018-09-21T04:25:43.398Z,13.33
2018-09-21T04:28:11.496Z,12.93
2018-09-21T04:30:39.570Z,13.07
2018-09-21T04:33:08.918Z,13.33
2018-09-21T04:35:37.010Z,13.73
2018-09-21T04:38:05.122Z,12.60
2018-09-21T04:40:33.216Z,11.90
2018-09-21T04:43:01.293Z,12.27
2018-09-21T04:45:29.398Z,12.17
2018-09-21T04:47:57.487Z,13.10
2018-09-21T04:50:25.578Z,12.50
2018-09-21T04:52:53.654Z,12.40
2018-09-21T04:55:21.739Z,13.10
2018-09-21T04:57:49.827Z,11.90
2018-09-21T05:00:17.922Z,13.30
2018-09-21T05:02:45.994Z,12.37
2018-09-21T05:05:14.094Z,12.90
2018-09-21T05:07:42.167Z,12.60
2018-09-21T05:10:10.275Z,12.50
2018-09-21T05:12:38.666Z,12.90
2018-09-21T05:15:07.079Z,13.40
2018-09-21T05:17:35.174Z,13.35
2018-09-21T05:20:03.303Z,12.30
2018-09-21T05:22:31.386Z,13.57
2018-09-21T05:24:59.478Z,12.30
2018-09-21T05:27:27.581Z,12.00
2018-09-21T05:29:55.657Z,12.35
2018-09-21T05:32:23.739Z,13.13
2018-09-21T05:34:51.866Z,11.90
2018-09-21T05:37:19.918Z,12.00
2018-09-21T05:39:48.006Z,12.20
2018-09-21T05:42:16.090Z,12.25
2018-09-21T05:44:44.182Z,12.00
2018-09-21T05:47:12.267Z,12.30
2018-09-21T05:49:40.362Z,13.20
2018-09-21T05:52:08.734Z,11.70
2018-09-21T05:54:36.830Z,11.90
2018-09-21T05:57:04.918Z,12.30
2018-09-21T05:59:33.014Z,12.40
2018-09-21T06:02:01.131Z,12.35
2018-09-21T06:04:29.210Z,11.60
2018-09-21T06:09:24.730Z,11.40
2018-09-21T06:11:53.622Z,13.20
2018-09-21T06:14:21.713Z,11.50
2018-09-21T06:16:49.803Z,12.00
2018-09-21T06:31:34.986Z,12.47
2018-09-21T06:34:03.087Z,10.17
2018-09-21T06:36:31.167Z,11.40
2018-09-21T06:38:59.263Z,11.50
2018-09-21T06:41:27.351Z,11.00
2018-09-21T06:43:55.443Z,11.73
2018-09-21T06:46:23.538Z,10.40
2018-09-21T06:48:51.618Z,11.20
2018-09-21T06:51:19.716Z,11.70
2018-09-21T06:53:47.791Z,10.60
2018-09-21T06:56:15.882Z,11.00
2018-09-21T06:58:43.958Z,11.15
2018-09-21T07:01:12.058Z,10.90
2018-09-21T07:03:40.142Z,11.85
2018-09-21T07:06:08.410Z,10.20
2018-09-21T07:08:36.499Z,10.05
2018-09-21T07:11:04.594Z,9.80
2018-09-21T07:13:32.714Z,10.83
2018-09-21T07:16:00.850Z,10.70
2018-09-21T07:18:28.910Z,10.10
2018-09-21T07:20:57.014Z,10.30
2018-09-21T07:23:25.098Z,10.50
2018-09-21T07:25:53.183Z,9.00
2018-09-21T07:28:21.266Z,9.87
2018-09-21T07:30:49.404Z,9.20
2018-09-21T07:33:17.442Z,8.93
2018-09-21T07:35:45.550Z,9.50
2018-09-21T07:38:13.630Z,8.70
2018-09-21T07:40:41.715Z,8.97
2018-09-21T07:43:10.064Z,8.50
2018-09-21T07:45:38.153Z,9.07
2018-09-21T07:48:06.238Z,7.57
2018-09-21T07:50:34.316Z,7.73
2018-09-21T07:53:02.405Z,7.50
2018-09-21T07:55:30.714Z,8.17
2018-09-21T07:57:58.797Z,6.70
2018-09-21T08:00:26.882Z,6.33
2018-09-21T08:02:54.954Z,6.43
2018-09-21T08:05:27.561Z,6.47
2018-09-21T08:07:55.890Z,5.97
2018-09-21T08:10:23.986Z,6.60
2018-09-21T08:12:52.084Z,6.20
2018-09-21T08:15:20.272Z,6.10
2018-09-21T08:17:48.350Z,6.00
2018-09-21T08:20:16.455Z,6.20
2018-09-21T08:22:44.539Z,6.90
2018-09-21T08:25:12.647Z,5.93
2018-09-21T08:27:40.766Z,5.67
2018-09-21T08:30:08.858Z,5.87
2018-09-21T08:32:36.935Z,6.17
2018-09-21T08:35:05.035Z,6.40
2018-09-21T08:37:33.106Z,5.90
2018-09-21T08:40:01.187Z,6.10
2018-09-21T08:42:29.282Z,6.43
2018-09-21T08:44:57.374Z,6.40
2018-09-21T08:47:25.454Z,6.33
2018-09-21T08:49:53.734Z,6.17
2018-09-21T08:52:21.835Z,6.20
2018-09-21T08:54:50.258Z,7.40
2018-09-21T08:57:18.365Z,6.00
2018-09-21T08:59:46.446Z,5.60
2018-09-21T09:02:14.907Z,6.50
2018-09-21T09:04:42.982Z,5.37
2018-09-21T09:07:11.094Z,6.57
2018-09-21T09:09:39.166Z,6.43
2018-09-21T09:12:07.259Z,6.33
2018-09-21T09:14:35.348Z,5.90
2018-09-21T09:17:03.425Z,5.93
2018-09-21T09:19:31.513Z,6.90
2018-09-21T09:21:59.616Z,6.33
2018-09-21T09:24:27.704Z,6.47
2018-09-21T09:26:55.770Z,6.50
2018-09-21T09:29:23.858Z,6.93
2018-09-21T09:31:51.951Z,6.10
2018-09-21T09:34:20.028Z,6.67
2018-09-21T09:36:48.158Z,6.80
2018-09-21T09:39:16.186Z,6.80
2018-09-21T09:41:44.269Z,6.70
2018-09-21T09:44:12.347Z,6.27
2018-09-21T09:46:40.438Z,6.20
2018-09-21T09:49:08.562Z,5.60
2018-09-21T09:51:36.614Z,6.07
2018-09-21T09:54:04.766Z,5.50
2018-09-21T09:56:32.846Z,5.83
2018-09-21T09:59:01.111Z,5.93
2018-09-21T10:01:29.203Z,4.33
2018-09-21T10:03:57.317Z,5.40
2018-09-21T10:06:25.379Z,4.87
2018-09-21T10:08:53.446Z,5.97
2018-09-21T10:11:21.550Z,4.87
2018-09-21T10:13:49.644Z,5.10
2018-09-21T10:16:17.755Z,5.60
2018-09-21T10:18:45.834Z,4.53
2018-09-21T10:21:13.919Z,5.23
2018-09-21T10:23:42.338Z,5.47
2018-09-21T10:26:10.418Z,4.50
2018-09-21T10:28:38.646Z,5.20
2018-09-21T10:31:06.612Z,5.37
2018-09-21T10:33:34.717Z,5.83
2018-09-21T10:36:02.788Z,5.10
2018-09-21T10:38:30.874Z,4.80
2018-09-21T10:40:58.965Z,4.83
2018-09-21T10:43:27.055Z,4.00
2018-09-21T10:45:55.154Z,4.60
2018-09-21T10:48:23.231Z,4.90
2018-09-21T10:50:51.594Z,4.70
2018-09-21T10:53:19.670Z,5.97
2018-09-21T10:55:47.754Z,4.70
2018-09-21T10:58:15.850Z,4.57
2018-09-21T11:00:43.943Z,4.43
2018-09-21T11:03:12.023Z,4.40
2018-09-21T11:05:40.116Z,4.57
2018-09-21T11:08:08.208Z,5.13
2018-09-21T11:10:36.288Z,3.87
2018-09-21T11:13:04.441Z,4.27
2018-09-21T11:15:32.474Z,4.37
2018-09-21T11:18:00.574Z,3.20
2018-09-21T11:20:28.850Z,4.07
2018-09-21T11:22:56.937Z,3.60
2018-09-21T11:25:25.015Z,4.10
2018-09-21T11:27:53.090Z,3.00
2018-09-21T11:30:21.162Z,3.30
2018-09-21T11:32:49.246Z,3.60
2018-09-21T11:35:17.402Z,3.63
2018-09-21T11:37:45.543Z,3.47
2018-09-21T11:40:13.650Z,3.80
2018-09-21T11:42:41.754Z,3.97
2018-09-21T11:45:09.830Z,4.10
2018-09-21T11:47:37.966Z,3.80
2018-09-21T11:50:06.014Z,3.60
2018-09-21T11:52:34.106Z,3.80
2018-09-21T11:55:02.191Z,3.97
2018-09-21T11:57:30.262Z,3.40
2018-09-21T11:59:58.337Z,3.50
2018-09-21T12:02:26.418Z,3.60
2018-09-21T12:04:54.539Z,3.80
2018-09-21T12:07:22.606Z,4.40
2018-09-21T12:09:50.690Z,3.60
2018-09-21T12:12:18.771Z,3.93
2018-09-21T12:14:46.854Z,3.33
2018-09-21T12:17:14.939Z,4.10
2018-09-21T12:19:43.019Z,3.50
2018-09-21T12:22:11.223Z,3.23
2018-09-21T12:24:39.198Z,3.20
2018-09-21T12:27:07.302Z,2.90
2018-09-21T12:29:35.378Z,3.17
2018-09-21T12:32:03.463Z,3.40
2018-09-21T12:34:31.546Z,3.03
2018-09-21T12:36:59.642Z,2.67
2018-09-21T12:39:27.737Z,3.00
2018-09-21T12:41:55.834Z,2.50
2018-09-21T12:44:23.943Z,3.37
2018-09-21T12:46:51.983Z,3.30
2018-09-21T12:49:20.087Z,3.43
2018-09-21T12:51:48.188Z,3.50
2018-09-21T12:54:16.278Z,3.80
2018-09-21T12:56:44.366Z,3.20
2018-09-21T12:59:12.438Z,3.20
2018-09-21T13:01:40.516Z,2.73
2018-09-21T13:04:08.615Z,2.77
2018-09-21T13:06:36.695Z,4.10
2018-09-21T13:09:06.486Z,2.70
2018-09-21T13:11:34.566Z,3.33
2018-09-21T13:14:02.652Z,3.00
2018-09-21T13:16:30.856Z,2.73
2018-09-21T13:18:58.946Z,2.90
2018-09-21T13:21:27.018Z,3.00
2018-09-21T13:23:55.110Z,2.80
2018-09-21T13:26:23.194Z,2.90
2018-09-21T13:28:51.282Z,2.83
2018-09-21T13:31:19.495Z,3.20
2018-09-21T13:33:47.574Z,3.20
2018-09-21T13:36:15.667Z,2.63
2018-09-21T13:38:43.754Z,2.83
2018-09-21T13:41:11.835Z,3.50
2018-09-21T13:43:39.956Z,2.93
2018-09-21T13:46:08.036Z,3.37
2018-09-21T13:48:36.128Z,2.17
2018-09-21T13:51:04.210Z,1.87
2018-09-21T13:53:32.298Z,1.30
2018-09-21T13:56:00.382Z,1.10
2018-09-21T13:58:28.486Z,1.13
2018-09-21T14:00:56.574Z,1.33
2018-09-21T14:03:24.666Z,1.00
2018-09-21T14:05:52.744Z,1.40
2018-09-21T14:08:20.854Z,0.80
2018-09-21T14:10:48.933Z,1.10
2018-09-21T14:13:17.031Z,0.90
2018-09-21T14:15:45.126Z,0.97
2018-09-21T14:18:13.216Z,1.20
2018-09-21T14:20:41.298Z,1.00
2018-09-21T14:23:09.372Z,1.10
2018-09-21T14:25:37.446Z,1.03
2018-09-21T14:28:05.561Z,1.27
2018-09-21T14:30:33.639Z,1.47
2018-09-21T14:33:01.715Z,1.60
2018-09-21T14:35:29.814Z,1.80
2018-09-21T14:37:57.880Z,1.90
2018-09-21T14:40:25.946Z,2.10
2018-09-21T14:42:54.038Z,1.60
2018-09-21T14:57:39.214Z,1.90
2018-09-21T15:00:07.382Z,1.77
2018-09-21T15:02:35.466Z,1.43
2018-09-21T15:05:03.546Z,1.60
2018-09-21T15:07:31.618Z,1.60
2018-09-21T15:14:54.558Z,1.90
2018-09-21T15:17:22.632Z,2.10
2018-09-21T15:19:50.903Z,1.70
2018-09-21T15:22:19.203Z,1.53
2018-09-21T15:24:47.148Z,1.90
2018-09-21T15:27:15.413Z,2.20
2018-09-21T15:29:43.494Z,1.90
2018-09-21T15:32:11.570Z,1.60
2018-09-21T15:34:39.662Z,1.70
2018-09-21T15:37:07.739Z,1.90
2018-09-21T15:59:15.475Z,2.30
2018-09-21T16:01:43.546Z,2.10
2018-09-21T16:04:11.630Z,1.80
2018-09-21T16:11:36.178Z,2.30
2018-09-21T16:14:04.357Z,2.20
2018-09-21T16:16:32.441Z,2.10
2018-09-21T16:19:00.814Z,2.70
2018-09-21T16:21:28.885Z,2.30
2018-09-21T16:23:56.980Z,3.00
2018-09-21T16:26:25.056Z,2.70
2018-09-21T16:28:53.167Z,2.60
2018-09-21T16:41:11.618Z,2.37
2018-09-21T16:43:39.707Z,3.70
2018-09-21T16:46:07.782Z,3.20
2018-09-21T17:10:43.198Z,3.00
2018-09-21T17:27:56.222Z,3.70
2018-09-21T17:30:24.302Z,3.50
2018-09-21T17:32:52.375Z,3.87
2018-09-21T17:35:20.466Z,3.20
2018-09-21T17:37:48.582Z,3.63
2018-09-21T17:42:44.026Z,3.30
2018-09-21T17:57:29.242Z,3.05
2018-09-21T18:09:48.727Z,3.20
2018-09-21T18:12:16.798Z,3.00
2018-09-21T18:14:45.170Z,4.10
2018-09-21T18:17:13.280Z,3.00
2018-09-21T18:19:41.742Z,2.80
2018-09-21T18:22:10.411Z,3.40
2018-09-21T18:24:38.498Z,2.87
2018-09-21T18:36:56.454Z,3.17
2018-09-21T18:39:24.579Z,2.80
2018-09-21T18:41:52.616Z,2.87
2018-09-21T18:44:20.711Z,3.03
2018-09-21T18:46:48.957Z,2.50
2018-09-21T18:49:17.054Z,2.60
2018-09-21T18:51:45.147Z,2.23
2018-09-21T18:54:13.581Z,2.70
2018-09-21T18:56:41.682Z,2.65
2018-09-21T18:59:10.122Z,2.50
2018-09-21T19:01:38.379Z,2.60
2018-09-21T19:04:06.503Z,2.60
2018-09-21T19:06:34.559Z,2.73
2018-09-21T19:09:02.669Z,3.07
2018-09-21T19:11:30.755Z,3.70
2018-09-21T19:13:58.843Z,2.77
2018-09-21T19:16:26.955Z,3.30
2018-09-21T19:18:55.611Z,2.60
2018-09-21T19:21:23.686Z,2.77
2018-09-21T19:23:51.771Z,2.83
2018-09-21T19:26:19.862Z,3.10
2018-09-21T19:28:47.938Z,3.57
2018-09-21T19:31:16.018Z,3.40
2018-09-21T19:33:44.110Z,2.70
2018-09-21T19:36:12.325Z,3.37
2018-09-21T19:38:40.450Z,2.80
2018-09-21T19:41:08.500Z,3.00
2018-09-21T19:43:36.582Z,2.87
2018-09-21T19:46:04.670Z,2.20
2018-09-21T19:48:32.749Z,2.97
2018-09-21T19:51:01.026Z,2.67
2018-09-21T19:53:29.111Z,2.60
2018-09-21T19:55:57.194Z,2.93
2018-09-21T19:58:25.272Z,2.60
2018-09-21T20:00:53.358Z,3.10
2018-09-21T20:03:21.906Z,2.90
2018-09-21T20:05:50.006Z,2.80
2018-09-21T20:08:18.082Z,2.20
2018-09-21T20:10:46.178Z,2.60
2018-09-21T20:13:14.258Z,2.60
2018-09-21T20:15:42.352Z,1.97
2018-09-21T20:18:10.435Z,2.13
2018-09-21T20:20:38.515Z,2.07
2018-09-21T20:23:06.586Z,2.10
2018-09-21T20:25:34.670Z,2.20
2018-09-21T20:28:02.750Z,2.10
2018-09-21T20:30:36.333Z,2.50
2018-09-21T20:33:09.758Z,1.67
2018-09-21T20:35:37.915Z,2.20
2018-09-21T20:38:05.937Z,2.10
2018-09-21T20:40:34.018Z,2.00
2018-09-21T20:43:02.090Z,1.70
2018-09-21T20:45:30.176Z,2.37
2018-09-21T20:47:58.257Z,2.13
2018-09-21T20:50:26.362Z,1.93
2018-09-21T20:52:54.480Z,1.50
2018-09-21T20:55:22.552Z,1.90
2018-09-21T20:57:50.638Z,2.00
2018-09-21T21:00:18.734Z,1.73
2018-09-21T21:02:46.983Z,1.40
2018-09-21T21:05:15.130Z,2.20
2018-09-21T21:07:43.198Z,1.43
2018-09-21T21:10:11.279Z,1.50
2018-09-21T21:12:39.357Z,1.90
2018-09-21T21:15:07.530Z,1.40
2018-09-21T21:17:35.606Z,1.57
2018-09-21T21:20:03.714Z,1.70
2018-09-21T21:22:31.793Z,1.97
2018-09-21T21:25:00.118Z,1.60
2018-09-21T21:27:28.228Z,1.50
2018-09-21T21:29:56.301Z,1.60
2018-09-21T21:32:24.397Z,1.40
2018-09-21T21:34:52.470Z,1.60
2018-09-21T21:37:20.570Z,2.00
2018-09-21T21:39:48.639Z,1.53
2018-09-21T21:42:16.722Z,1.70
2018-09-21T21:44:44.806Z,1.83
2018-09-21T21:47:12.895Z,2.00
2018-09-21T21:49:40.966Z,1.90
2018-09-21T21:52:09.050Z,1.70
2018-09-21T21:54:37.143Z,1.63
2018-09-21T21:57:05.482Z,1.80
2018-09-21T21:59:33.558Z,1.90
2018-09-21T22:02:01.655Z,1.50
2018-09-21T22:04:29.726Z,1.67
2018-09-21T22:06:57.845Z,1.50
2018-09-21T22:09:25.927Z,1.70
2018-09-21T22:11:59.350Z,1.30
2018-09-21T22:14:27.434Z,1.97
2018-09-21T22:16:55.520Z,1.40
2018-09-21T22:19:23.594Z,1.70
2018-09-21T22:21:51.674Z,1.53
2018-09-21T22:24:19.742Z,1.30
2018-09-21T22:26:47.826Z,1.87
2018-09-21T22:29:15.899Z,1.93
2018-09-21T22:31:43.989Z,1.60
2018-09-21T22:34:12.071Z,1.23
2018-09-21T22:36:40.146Z,1.50
2018-09-21T22:39:08.689Z,1.40
2018-09-21T22:41:37.043Z,2.90
2018-09-21T22:44:05.090Z,1.67
2018-09-21T22:46:33.162Z,1.77
2018-09-21T22:49:02.310Z,1.97
2018-09-21T22:51:30.389Z,1.80
2018-09-21T22:53:58.494Z,1.43
2018-09-21T22:56:26.566Z,1.60
2018-09-21T22:58:54.642Z,1.73
2018-09-21T23:01:22.726Z,1.50
2018-09-21T23:03:50.805Z,1.60
2018-09-21T23:06:18.889Z,1.40
2018-09-21T23:08:46.970Z,1.60
2018-09-21T23:11:15.059Z,1.60
2018-09-21T23:13:43.138Z,1.80
2018-09-21T23:16:11.226Z,1.70
2018-09-21T23:18:39.310Z,1.55
2018-09-21T23:21:07.574Z,1.40
2018-09-21T23:23:35.658Z,1.40
2018-09-21T23:26:03.744Z,2.07
2018-09-21T23:28:31.829Z,1.23
2018-09-21T23:30:59.992Z,1.83
2018-09-21T23:33:28.074Z,1.87
2018-09-21T23:35:56.154Z,1.50
2018-09-21T23:38:24.245Z,1.83
2018-09-21T23:40:52.311Z,1.40
2018-09-21T23:43:20.382Z,1.47
2018-09-21T23:45:48.499Z,1.70
2018-09-21T23:48:16.578Z,1.77
2018-09-21T23:50:44.652Z,1.80
2018-09-21T23:53:12.730Z,2.37
2018-09-21T23:55:40.813Z,1.63
2018-09-21T23:58:08.996Z,1.93
